sensor_id;sensor_type;location;lat;lon;timestamp;temperature;humidity
11855;DHT22;5987;53.140;8.904;2024-03-02T00:01:00;7.80;99.90
11855;DHT22;5987;53.140;8.904;2024-03-02T00:04:05;7.90;99.90
11855;DHT22;5987;53.140;8.904;2024-03-02T00:07:14;8.00;99.90
11855;DHT22;5987;53.140;8.904;2024-03-02T00:10:21;7.90;99.90
11855;DHT22;5987;53.140;8.904;2024-03-02T00:13:27;7.90;99.90
11855;DHT22;5987;53.140;8.904;2024-03-02T00:16:32;7.80;99.90
11855;DHT22;5987;53.140;8.904;2024-03-02T00:19:38;7.90;99.90
11855;DHT22;5987;53.140;8.904;2024-03-02T00:22:44;7.90;99.90
11855;DHT22;5987;53.140;8.904;2024-03-02T00:25:53;7.80;99.90
11855;DHT22;5987;53.140;8.904;2024-03-02T00:28:59;7.70;99.90
11855;DHT22;5987;53.140;8.904;2024-03-02T00:32:03;7.80;99.90
11855;DHT22;5987;53.140;8.904;2024-03-02T00:35:11;7.70;99.90
11855;DHT22;5987;53.140;8.904;2024-03-02T00:38:16;7.70;99.90
11855;DHT22;5987;53.140;8.904;2024-03-02T00:41:22;7.70;99.90
11855;DHT22;5987;53.140;8.904;2024-03-02T00:44:27;7.60;99.90
11855;DHT22;5987;53.140;8.904;2024-03-02T00:47:38;7.60;99.90
11855;DHT22;5987;53.140;8.904;2024-03-02T00:50:42;7.60;99.90
11855;DHT22;5987;53.140;8.904;2024-03-02T00:53:48;7.60;99.90
11855;DHT22;5987;53.140;8.904;2024-03-02T00:56:53;7.70;99.90
11855;DHT22;5987;53.140;8.904;2024-03-02T00:59:58;7.70;99.90
11855;DHT22;5987;53.140;8.904;2024-03-02T01:03:03;7.60;99.90
11855;DHT22;5987;53.140;8.904;2024-03-02T01:06:07;7.50;99.90
11855;DHT22;5987;53.140;8.904;2024-03-02T01:09:13;7.60;99.90
11855;DHT22;5987;53.140;8.904;2024-03-02T01:12:17;7.60;99.90
11855;DHT22;5987;53.140;8.904;2024-03-02T01:15:21;7.50;99.90
11855;DHT22;5987;53.140;8.904;2024-03-02T01:18:25;7.50;99.90
11855;DHT22;5987;53.140;8.904;2024-03-02T01:21:28;7.40;99.90
11855;DHT22;5987;53.140;8.904;2024-03-02T01:24:34;7.40;99.90
11855;DHT22;5987;53.140;8.904;2024-03-02T01:27:38;7.40;99.90
11855;DHT22;5987;53.140;8.904;2024-03-02T01:30:42;7.30;99.90
11855;DHT22;5987;53.140;8.904;2024-03-02T01:33:45;7.30;99.90
11855;DHT22;5987;53.140;8.904;2024-03-02T01:36:49;7.40;99.90
11855;DHT22;5987;53.140;8.904;2024-03-02T01:39:55;7.40;99.90
11855;DHT22;5987;53.140;8.904;2024-03-02T01:42:59;7.50;99.90
11855;DHT22;5987;53.140;8.904;2024-03-02T01:46:03;7.60;99.90
11855;DHT22;5987;53.140;8.904;2024-03-02T01:49:07;7.60;99.90
11855;DHT22;5987;53.140;8.904;2024-03-02T01:52:11;7.50;99.90
11855;DHT22;5987;53.140;8.904;2024-03-02T01:55:17;7.50;99.90
11855;DHT22;5987;53.140;8.904;2024-03-02T01:58:20;7.40;99.90
11855;DHT22;5987;53.140;8.904;2024-03-02T02:01:24;7.40;99.90
11855;DHT22;5987;53.140;8.904;2024-03-02T02:04:28;7.50;99.90
11855;DHT22;5987;53.140;8.904;2024-03-02T02:07:32;7.40;99.90
11855;DHT22;5987;53.140;8.904;2024-03-02T02:10:38;7.40;99.90
11855;DHT22;5987;53.140;8.904;2024-03-02T02:13:42;7.40;99.90
11855;DHT22;5987;53.140;8.904;2024-03-02T02:16:46;7.30;99.90
11855;DHT22;5987;53.140;8.904;2024-03-02T02:19:50;7.20;99.90
11855;DHT22;5987;53.140;8.904;2024-03-02T02:22:59;7.00;99.90
11855;DHT22;5987;53.140;8.904;2024-03-02T02:26:03;7.00;99.90
11855;DHT22;5987;53.140;8.904;2024-03-02T02:29:07;7.10;99.90
11855;DHT22;5987;53.140;8.904;2024-03-02T02:32:11;7.20;99.90
11855;DHT22;5987;53.140;8.904;2024-03-02T02:35:15;7.20;99.90
11855;DHT22;5987;53.140;8.904;2024-03-02T02:38:20;7.20;99.90
11855;DHT22;5987;53.140;8.904;2024-03-02T02:41:24;7.10;99.90
11855;DHT22;5987;53.140;8.904;2024-03-02T02:44:28;6.90;99.90
11855;DHT22;5987;53.140;8.904;2024-03-02T02:47:32;6.80;99.90
11855;DHT22;5987;53.140;8.904;2024-03-02T02:50:37;6.80;99.90
11855;DHT22;5987;53.140;8.904;2024-03-02T02:53:42;6.80;99.90
11855;DHT22;5987;53.140;8.904;2024-03-02T02:56:46;6.90;99.90
11855;DHT22;5987;53.140;8.904;2024-03-02T02:59:50;6.80;99.90
11855;DHT22;5987;53.140;8.904;2024-03-02T03:02:53;6.80;99.90
11855;DHT22;5987;53.140;8.904;2024-03-02T03:05:57;6.90;99.90
11855;DHT22;5987;53.140;8.904;2024-03-02T03:09:03;6.90;99.90
11855;DHT22;5987;53.140;8.904;2024-03-02T03:12:07;6.90;99.90
11855;DHT22;5987;53.140;8.904;2024-03-02T03:15:11;6.90;99.90
11855;DHT22;5987;53.140;8.904;2024-03-02T03:18:15;6.90;99.90
11855;DHT22;5987;53.140;8.904;2024-03-02T03:21:19;6.90;99.90
11855;DHT22;5987;53.140;8.904;2024-03-02T03:24:24;6.90;99.90
11855;DHT22;5987;53.140;8.904;2024-03-02T03:27:28;6.90;99.90
11855;DHT22;5987;53.140;8.904;2024-03-02T03:30:32;6.90;99.90
11855;DHT22;5987;53.140;8.904;2024-03-02T03:33:36;6.80;99.90
11855;DHT22;5987;53.140;8.904;2024-03-02T03:36:40;6.80;99.90
11855;DHT22;5987;53.140;8.904;2024-03-02T03:39:45;6.80;99.90
11855;DHT22;5987;53.140;8.904;2024-03-02T03:42:49;6.80;99.90
11855;DHT22;5987;53.140;8.904;2024-03-02T03:45:54;6.80;99.90
11855;DHT22;5987;53.140;8.904;2024-03-02T03:48:57;6.80;99.90
11855;DHT22;5987;53.140;8.904;2024-03-02T03:52:02;6.80;99.90
11855;DHT22;5987;53.140;8.904;2024-03-02T03:55:09;6.80;99.90
11855;DHT22;5987;53.140;8.904;2024-03-02T03:58:13;6.80;99.90
11855;DHT22;5987;53.140;8.904;2024-03-02T04:01:16;6.70;99.90
11855;DHT22;5987;53.140;8.904;2024-03-02T04:04:21;6.70;99.90
11855;DHT22;5987;53.140;8.904;2024-03-02T04:07:24;6.80;99.90
11855;DHT22;5987;53.140;8.904;2024-03-02T04:10:30;6.70;99.90
11855;DHT22;5987;53.140;8.904;2024-03-02T04:13:33;6.80;99.90
11855;DHT22;5987;53.140;8.904;2024-03-02T04:16:37;6.80;99.90
11855;DHT22;5987;53.140;8.904;2024-03-02T04:19:41;6.80;99.90
11855;DHT22;5987;53.140;8.904;2024-03-02T04:22:45;6.80;99.90
11855;DHT22;5987;53.140;8.904;2024-03-02T04:25:50;6.90;99.90
11855;DHT22;5987;53.140;8.904;2024-03-02T04:28:54;6.80;99.90
11855;DHT22;5987;53.140;8.904;2024-03-02T04:31:59;6.80;99.90
11855;DHT22;5987;53.140;8.904;2024-03-02T04:35:04;6.80;99.90
11855;DHT22;5987;53.140;8.904;2024-03-02T04:38:10;6.90;99.90
11855;DHT22;5987;53.140;8.904;2024-03-02T04:41:15;6.90;99.90
11855;DHT22;5987;53.140;8.904;2024-03-02T04:44:19;6.80;99.90
11855;DHT22;5987;53.140;8.904;2024-03-02T04:47:23;6.80;99.90
11855;DHT22;5987;53.140;8.904;2024-03-02T04:50:27;7.00;99.90
11855;DHT22;5987;53.140;8.904;2024-03-02T04:53:30;6.80;99.90
11855;DHT22;5987;53.140;8.904;2024-03-02T04:56:36;6.50;99.90
11855;DHT22;5987;53.140;8.904;2024-03-02T04:59:46;6.60;99.90
11855;DHT22;5987;53.140;8.904;2024-03-02T05:02:50;6.70;99.90
11855;DHT22;5987;53.140;8.904;2024-03-02T05:05:54;6.70;99.90
11855;DHT22;5987;53.140;8.904;2024-03-02T05:08:58;6.70;99.90
11855;DHT22;5987;53.140;8.904;2024-03-02T05:12:03;6.70;99.90
11855;DHT22;5987;53.140;8.904;2024-03-02T05:15:31;6.70;99.90
11855;DHT22;5987;53.140;8.904;2024-03-02T05:18:37;6.80;99.90
11855;DHT22;5987;53.140;8.904;2024-03-02T05:21:41;6.80;99.90
11855;DHT22;5987;53.140;8.904;2024-03-02T05:24:45;6.80;99.90
11855;DHT22;5987;53.140;8.904;2024-03-02T05:27:51;6.80;99.90
11855;DHT22;5987;53.140;8.904;2024-03-02T05:30:55;6.80;99.90
11855;DHT22;5987;53.140;8.904;2024-03-02T05:33:59;6.90;99.90
11855;DHT22;5987;53.140;8.904;2024-03-02T05:37:03;7.00;99.90
11855;DHT22;5987;53.140;8.904;2024-03-02T05:40:08;7.00;99.90
11855;DHT22;5987;53.140;8.904;2024-03-02T05:43:14;7.00;99.90
11855;DHT22;5987;53.140;8.904;2024-03-02T05:46:19;7.00;99.90
11855;DHT22;5987;53.140;8.904;2024-03-02T05:49:22;6.90;99.90
11855;DHT22;5987;53.140;8.904;2024-03-02T05:52:26;6.90;99.90
11855;DHT22;5987;53.140;8.904;2024-03-02T05:55:31;6.90;99.90
11855;DHT22;5987;53.140;8.904;2024-03-02T05:58:36;7.00;99.90
11855;DHT22;5987;53.140;8.904;2024-03-02T06:01:55;6.90;99.90
11855;DHT22;5987;53.140;8.904;2024-03-02T06:04:59;7.00;99.90
11855;DHT22;5987;53.140;8.904;2024-03-02T06:08:03;6.90;99.90
11855;DHT22;5987;53.140;8.904;2024-03-02T06:11:07;6.90;99.90
11855;DHT22;5987;53.140;8.904;2024-03-02T06:14:12;6.90;99.90
11855;DHT22;5987;53.140;8.904;2024-03-02T06:17:16;6.90;99.90
11855;DHT22;5987;53.140;8.904;2024-03-02T06:20:20;6.90;99.90
11855;DHT22;5987;53.140;8.904;2024-03-02T06:23:24;6.90;99.90
11855;DHT22;5987;53.140;8.904;2024-03-02T06:26:28;6.90;99.90
11855;DHT22;5987;53.140;8.904;2024-03-02T06:29:35;6.90;99.90
11855;DHT22;5987;53.140;8.904;2024-03-02T06:32:39;6.90;99.90
11855;DHT22;5987;53.140;8.904;2024-03-02T06:35:43;6.90;99.90
11855;DHT22;5987;53.140;8.904;2024-03-02T06:38:47;7.00;99.90
11855;DHT22;5987;53.140;8.904;2024-03-02T06:41:51;7.00;99.90
11855;DHT22;5987;53.140;8.904;2024-03-02T06:44:56;7.00;99.90
11855;DHT22;5987;53.140;8.904;2024-03-02T06:48:00;7.10;99.90
11855;DHT22;5987;53.140;8.904;2024-03-02T06:51:04;7.10;99.90
11855;DHT22;5987;53.140;8.904;2024-03-02T06:54:08;7.20;99.90
11855;DHT22;5987;53.140;8.904;2024-03-02T06:57:11;7.30;99.90
11855;DHT22;5987;53.140;8.904;2024-03-02T07:00:17;7.30;99.90
11855;DHT22;5987;53.140;8.904;2024-03-02T07:03:22;7.30;99.90
11855;DHT22;5987;53.140;8.904;2024-03-02T07:06:26;7.50;99.90
11855;DHT22;5987;53.140;8.904;2024-03-02T07:09:30;7.50;99.90
11855;DHT22;5987;53.140;8.904;2024-03-02T07:12:34;7.50;99.90
11855;DHT22;5987;53.140;8.904;2024-03-02T07:15:39;7.50;99.90
11855;DHT22;5987;53.140;8.904;2024-03-02T07:19:13;7.50;99.90
11855;DHT22;5987;53.140;8.904;2024-03-02T07:22:17;7.50;99.90
11855;DHT22;5987;53.140;8.904;2024-03-02T07:25:21;7.60;99.90
11855;DHT22;5987;53.140;8.904;2024-03-02T07:28:28;7.60;99.90
11855;DHT22;5987;53.140;8.904;2024-03-02T07:31:33;7.70;99.90
11855;DHT22;5987;53.140;8.904;2024-03-02T07:34:38;7.80;99.90
11855;DHT22;5987;53.140;8.904;2024-03-02T07:37:42;8.00;99.90
11855;DHT22;5987;53.140;8.904;2024-03-02T07:44:19;8.00;99.90
11855;DHT22;5987;53.140;8.904;2024-03-02T07:47:27;8.10;99.90
11855;DHT22;5987;53.140;8.904;2024-03-02T07:50:31;8.10;99.90
11855;DHT22;5987;53.140;8.904;2024-03-02T07:53:37;8.20;99.90
11855;DHT22;5987;53.140;8.904;2024-03-02T07:56:43;8.30;99.90
11855;DHT22;5987;53.140;8.904;2024-03-02T07:59:47;8.30;99.90
11855;DHT22;5987;53.140;8.904;2024-03-02T08:02:52;8.40;99.90
11855;DHT22;5987;53.140;8.904;2024-03-02T08:05:56;8.30;99.90
11855;DHT22;5987;53.140;8.904;2024-03-02T08:09:01;8.30;99.90
11855;DHT22;5987;53.140;8.904;2024-03-02T08:12:10;8.30;99.90
11855;DHT22;5987;53.140;8.904;2024-03-02T08:15:18;8.40;99.90
11855;DHT22;5987;53.140;8.904;2024-03-02T08:18:27;8.40;99.90
11855;DHT22;5987;53.140;8.904;2024-03-02T08:21:31;8.40;99.90
11855;DHT22;5987;53.140;8.904;2024-03-02T08:24:37;8.40;99.90
11855;DHT22;5987;53.140;8.904;2024-03-02T08:27:41;8.50;99.90
11855;DHT22;5987;53.140;8.904;2024-03-02T08:30:45;8.60;99.90
11855;DHT22;5987;53.140;8.904;2024-03-02T08:33:51;8.70;99.90
11855;DHT22;5987;53.140;8.904;2024-03-02T08:36:55;8.70;99.90
11855;DHT22;5987;53.140;8.904;2024-03-02T08:39:59;8.80;99.90
11855;DHT22;5987;53.140;8.904;2024-03-02T08:43:03;8.80;99.90
11855;DHT22;5987;53.140;8.904;2024-03-02T08:46:08;8.90;99.90
11855;DHT22;5987;53.140;8.904;2024-03-02T08:49:13;8.80;99.90
11855;DHT22;5987;53.140;8.904;2024-03-02T08:52:17;8.70;99.90
11855;DHT22;5987;53.140;8.904;2024-03-02T08:55:21;8.80;99.90
11855;DHT22;5987;53.140;8.904;2024-03-02T08:58:25;8.90;99.90
11855;DHT22;5987;53.140;8.904;2024-03-02T09:01:29;9.10;99.90
11855;DHT22;5987;53.140;8.904;2024-03-02T09:04:34;9.30;99.90
11855;DHT22;5987;53.140;8.904;2024-03-02T09:07:38;9.40;99.90
11855;DHT22;5987;53.140;8.904;2024-03-02T09:10:42;9.50;99.90
11855;DHT22;5987;53.140;8.904;2024-03-02T09:13:46;9.80;99.90
11855;DHT22;5987;53.140;8.904;2024-03-02T09:16:50;10.00;99.90
11855;DHT22;5987;53.140;8.904;2024-03-02T09:19:55;10.20;99.90
11855;DHT22;5987;53.140;8.904;2024-03-02T09:22:59;10.30;99.90
11855;DHT22;5987;53.140;8.904;2024-03-02T09:26:03;10.30;99.90
11855;DHT22;5987;53.140;8.904;2024-03-02T09:29:07;10.30;99.90
11855;DHT22;5987;53.140;8.904;2024-03-02T09:32:12;10.30;99.90
11855;DHT22;5987;53.140;8.904;2024-03-02T09:35:19;10.40;99.90
11855;DHT22;5987;53.140;8.904;2024-03-02T09:38:23;10.40;99.90
11855;DHT22;5987;53.140;8.904;2024-03-02T09:41:26;10.50;99.90
11855;DHT22;5987;53.140;8.904;2024-03-02T09:44:31;10.60;99.90
11855;DHT22;5987;53.140;8.904;2024-03-02T09:47:36;10.70;99.90
11855;DHT22;5987;53.140;8.904;2024-03-02T09:50:41;10.80;99.90
11855;DHT22;5987;53.140;8.904;2024-03-02T09:53:47;10.80;99.90
11855;DHT22;5987;53.140;8.904;2024-03-02T09:56:51;10.80;99.90
11855;DHT22;5987;53.140;8.904;2024-03-02T09:59:55;10.70;99.90
11855;DHT22;5987;53.140;8.904;2024-03-02T10:02:59;10.70;99.90
11855;DHT22;5987;53.140;8.904;2024-03-02T10:06:21;10.90;99.90
11855;DHT22;5987;53.140;8.904;2024-03-02T10:09:27;11.10;99.90
11855;DHT22;5987;53.140;8.904;2024-03-02T10:12:31;11.10;99.90
11855;DHT22;5987;53.140;8.904;2024-03-02T10:15:41;11.20;99.90
11855;DHT22;5987;53.140;8.904;2024-03-02T10:18:45;11.40;99.90
11855;DHT22;5987;53.140;8.904;2024-03-02T10:21:51;11.50;99.90
11855;DHT22;5987;53.140;8.904;2024-03-02T10:24:57;11.50;99.90
11855;DHT22;5987;53.140;8.904;2024-03-02T10:28:01;11.50;99.90
11855;DHT22;5987;53.140;8.904;2024-03-02T10:31:07;11.50;99.90
11855;DHT22;5987;53.140;8.904;2024-03-02T10:34:13;11.50;99.90
11855;DHT22;5987;53.140;8.904;2024-03-02T10:37:21;11.60;99.90
11855;DHT22;5987;53.140;8.904;2024-03-02T10:40:25;11.70;99.90
11855;DHT22;5987;53.140;8.904;2024-03-02T10:43:30;12.00;99.90
11855;DHT22;5987;53.140;8.904;2024-03-02T10:46:36;12.00;99.90
11855;DHT22;5987;53.140;8.904;2024-03-02T10:49:42;12.20;99.90
11855;DHT22;5987;53.140;8.904;2024-03-02T10:52:48;12.30;99.90
11855;DHT22;5987;53.140;8.904;2024-03-02T10:55:56;12.20;99.90
11855;DHT22;5987;53.140;8.904;2024-03-02T10:59:13;12.30;99.90
11855;DHT22;5987;53.140;8.904;2024-03-02T11:02:24;12.50;99.90
11855;DHT22;5987;53.140;8.904;2024-03-02T11:05:33;12.40;99.90
11855;DHT22;5987;53.140;8.904;2024-03-02T11:08:41;12.50;99.90
11855;DHT22;5987;53.140;8.904;2024-03-02T11:11:56;12.50;99.90
11855;DHT22;5987;53.140;8.904;2024-03-02T11:15:11;12.70;99.90
11855;DHT22;5987;53.140;8.904;2024-03-02T11:18:21;12.90;99.90
11855;DHT22;5987;53.140;8.904;2024-03-02T11:21:26;12.90;99.90
11855;DHT22;5987;53.140;8.904;2024-03-02T11:24:34;12.80;99.90
11855;DHT22;5987;53.140;8.904;2024-03-02T11:27:59;12.80;99.90
11855;DHT22;5987;53.140;8.904;2024-03-02T11:31:04;12.90;99.90
11855;DHT22;5987;53.140;8.904;2024-03-02T11:34:18;13.00;99.90
11855;DHT22;5987;53.140;8.904;2024-03-02T11:37:32;13.10;99.90
11855;DHT22;5987;53.140;8.904;2024-03-02T11:40:39;13.00;99.90
11855;DHT22;5987;53.140;8.904;2024-03-02T11:43:44;13.00;99.90
11855;DHT22;5987;53.140;8.904;2024-03-02T11:46:52;13.20;99.90
11855;DHT22;5987;53.140;8.904;2024-03-02T11:49:56;13.20;99.90
11855;DHT22;5987;53.140;8.904;2024-03-02T11:53:02;13.30;99.90
11855;DHT22;5987;53.140;8.904;2024-03-02T11:56:12;13.30;99.90
11855;DHT22;5987;53.140;8.904;2024-03-02T11:59:17;13.20;99.90
11855;DHT22;5987;53.140;8.904;2024-03-02T12:02:23;13.30;99.90
11855;DHT22;5987;53.140;8.904;2024-03-02T12:05:27;13.40;99.90
11855;DHT22;5987;53.140;8.904;2024-03-02T12:08:32;13.40;99.90
11855;DHT22;5987;53.140;8.904;2024-03-02T12:11:37;13.40;99.90
11855;DHT22;5987;53.140;8.904;2024-03-02T12:14:50;13.50;99.90
11855;DHT22;5987;53.140;8.904;2024-03-02T12:17:55;13.60;99.90
11855;DHT22;5987;53.140;8.904;2024-03-02T12:20:59;13.60;99.90
11855;DHT22;5987;53.140;8.904;2024-03-02T12:24:05;13.70;99.90
11855;DHT22;5987;53.140;8.904;2024-03-02T12:27:12;13.70;99.90
11855;DHT22;5987;53.140;8.904;2024-03-02T12:30:16;13.40;99.90
11855;DHT22;5987;53.140;8.904;2024-03-02T12:33:21;13.30;99.90
11855;DHT22;5987;53.140;8.904;2024-03-02T12:36:26;13.20;99.90
11855;DHT22;5987;53.140;8.904;2024-03-02T12:39:30;13.20;99.90
11855;DHT22;5987;53.140;8.904;2024-03-02T12:42:36;13.40;99.90
11855;DHT22;5987;53.140;8.904;2024-03-02T12:45:41;13.50;99.90
11855;DHT22;5987;53.140;8.904;2024-03-02T12:48:45;13.50;99.90
11855;DHT22;5987;53.140;8.904;2024-03-02T12:51:50;13.50;99.90
11855;DHT22;5987;53.140;8.904;2024-03-02T12:54:56;13.60;99.90
11855;DHT22;5987;53.140;8.904;2024-03-02T12:58:20;13.50;99.90
11855;DHT22;5987;53.140;8.904;2024-03-02T13:01:51;13.60;99.90
11855;DHT22;5987;53.140;8.904;2024-03-02T13:04:55;13.80;99.90
11855;DHT22;5987;53.140;8.904;2024-03-02T13:07:59;13.90;99.90
11855;DHT22;5987;53.140;8.904;2024-03-02T13:11:05;14.00;99.90
11855;DHT22;5987;53.140;8.904;2024-03-02T13:14:12;14.00;99.90
11855;DHT22;5987;53.140;8.904;2024-03-02T13:17:17;14.00;99.90
11855;DHT22;5987;53.140;8.904;2024-03-02T13:20:21;14.00;99.90
11855;DHT22;5987;53.140;8.904;2024-03-02T13:23:27;13.90;99.90
11855;DHT22;5987;53.140;8.904;2024-03-02T13:26:32;13.90;99.90
11855;DHT22;5987;53.140;8.904;2024-03-02T13:29:38;14.00;99.90
11855;DHT22;5987;53.140;8.904;2024-03-02T13:32:42;14.10;99.90
11855;DHT22;5987;53.140;8.904;2024-03-02T13:35:45;14.10;99.90
11855;DHT22;5987;53.140;8.904;2024-03-02T13:38:49;14.10;99.90
11855;DHT22;5987;53.140;8.904;2024-03-02T13:41:53;14.10;99.90
11855;DHT22;5987;53.140;8.904;2024-03-02T13:45:07;14.10;99.90
11855;DHT22;5987;53.140;8.904;2024-03-02T13:48:11;14.10;99.90
11855;DHT22;5987;53.140;8.904;2024-03-02T13:51:17;14.00;99.90
11855;DHT22;5987;53.140;8.904;2024-03-02T13:54:21;14.00;99.90
11855;DHT22;5987;53.140;8.904;2024-03-02T13:57:25;14.10;99.90
11855;DHT22;5987;53.140;8.904;2024-03-02T14:00:32;14.30;99.90
11855;DHT22;5987;53.140;8.904;2024-03-02T14:03:36;14.10;99.90
11855;DHT22;5987;53.140;8.904;2024-03-02T14:06:40;14.20;99.90
11855;DHT22;5987;53.140;8.904;2024-03-02T14:09:46;14.20;99.90
11855;DHT22;5987;53.140;8.904;2024-03-02T14:12:50;14.20;99.90
11855;DHT22;5987;53.140;8.904;2024-03-02T14:15:55;14.20;99.90
11855;DHT22;5987;53.140;8.904;2024-03-02T14:19:00;14.10;99.90
11855;DHT22;5987;53.140;8.904;2024-03-02T14:22:06;14.00;99.90
11855;DHT22;5987;53.140;8.904;2024-03-02T14:25:13;14.10;99.90
11855;DHT22;5987;53.140;8.904;2024-03-02T14:28:17;14.20;99.90
11855;DHT22;5987;53.140;8.904;2024-03-02T14:31:43;14.30;99.90
11855;DHT22;5987;53.140;8.904;2024-03-02T14:34:50;14.20;99.90
11855;DHT22;5987;53.140;8.904;2024-03-02T14:37:57;14.20;99.90
11855;DHT22;5987;53.140;8.904;2024-03-02T14:41:04;14.30;99.90
11855;DHT22;5987;53.140;8.904;2024-03-02T14:44:08;14.40;99.90
11855;DHT22;5987;53.140;8.904;2024-03-02T14:47:13;14.40;99.90
11855;DHT22;5987;53.140;8.904;2024-03-02T14:50:17;14.30;99.90
11855;DHT22;5987;53.140;8.904;2024-03-02T14:53:21;14.20;99.90
11855;DHT22;5987;53.140;8.904;2024-03-02T14:56:25;14.20;99.90
11855;DHT22;5987;53.140;8.904;2024-03-02T14:59:30;14.10;99.90
11855;DHT22;5987;53.140;8.904;2024-03-02T15:02:36;14.10;99.90
11855;DHT22;5987;53.140;8.904;2024-03-02T15:05:40;14.10;99.90
11855;DHT22;5987;53.140;8.904;2024-03-02T15:08:44;14.10;99.90
11855;DHT22;5987;53.140;8.904;2024-03-02T15:11:48;14.10;99.90
11855;DHT22;5987;53.140;8.904;2024-03-02T15:14:52;13.90;99.90
11855;DHT22;5987;53.140;8.904;2024-03-02T15:17:58;13.90;99.90
11855;DHT22;5987;53.140;8.904;2024-03-02T15:21:04;13.90;99.90
11855;DHT22;5987;53.140;8.904;2024-03-02T15:24:08;13.90;99.90
11855;DHT22;5987;53.140;8.904;2024-03-02T15:27:12;13.90;99.90
11855;DHT22;5987;53.140;8.904;2024-03-02T15:30:16;13.80;99.90
11855;DHT22;5987;53.140;8.904;2024-03-02T15:33:22;13.80;99.90
11855;DHT22;5987;53.140;8.904;2024-03-02T15:36:31;13.70;99.90
11855;DHT22;5987;53.140;8.904;2024-03-02T15:39:35;13.80;99.90
11855;DHT22;5987;53.140;8.904;2024-03-02T15:42:39;13.70;99.90
11855;DHT22;5987;53.140;8.904;2024-03-02T15:45:43;13.70;99.90
11855;DHT22;5987;53.140;8.904;2024-03-02T15:48:49;13.60;99.90
11855;DHT22;5987;53.140;8.904;2024-03-02T15:51:52;13.60;99.90
11855;DHT22;5987;53.140;8.904;2024-03-02T15:54:56;13.50;99.90
11855;DHT22;5987;53.140;8.904;2024-03-02T15:58:01;13.60;99.90
11855;DHT22;5987;53.140;8.904;2024-03-02T16:01:07;13.60;99.90
11855;DHT22;5987;53.140;8.904;2024-03-02T16:04:13;13.60;99.90
11855;DHT22;5987;53.140;8.904;2024-03-02T16:07:18;13.50;99.90
11855;DHT22;5987;53.140;8.904;2024-03-02T16:10:22;13.50;99.90
11855;DHT22;5987;53.140;8.904;2024-03-02T16:13:26;13.50;99.90
11855;DHT22;5987;53.140;8.904;2024-03-02T16:16:31;13.40;99.90
11855;DHT22;5987;53.140;8.904;2024-03-02T16:19:37;13.40;99.90
11855;DHT22;5987;53.140;8.904;2024-03-02T16:22:43;13.50;99.90
11855;DHT22;5987;53.140;8.904;2024-03-02T16:25:47;13.40;99.90
11855;DHT22;5987;53.140;8.904;2024-03-02T16:28:51;13.30;99.90
11855;DHT22;5987;53.140;8.904;2024-03-02T16:31:55;13.20;99.90
11855;DHT22;5987;53.140;8.904;2024-03-02T16:35:00;13.20;99.90
11855;DHT22;5987;53.140;8.904;2024-03-02T16:38:04;13.20;99.90
11855;DHT22;5987;53.140;8.904;2024-03-02T16:41:08;13.10;99.90
11855;DHT22;5987;53.140;8.904;2024-03-02T16:44:12;13.00;99.90
11855;DHT22;5987;53.140;8.904;2024-03-02T16:47:16;13.00;99.90
11855;DHT22;5987;53.140;8.904;2024-03-02T16:50:22;12.90;99.90
11855;DHT22;5987;53.140;8.904;2024-03-02T16:53:26;12.80;99.90
11855;DHT22;5987;53.140;8.904;2024-03-02T16:56:37;12.80;99.90
11855;DHT22;5987;53.140;8.904;2024-03-02T16:59:42;12.80;99.90
11855;DHT22;5987;53.140;8.904;2024-03-02T17:02:46;12.80;99.90
11855;DHT22;5987;53.140;8.904;2024-03-02T17:05:51;12.80;99.90
11855;DHT22;5987;53.140;8.904;2024-03-02T17:08:56;12.70;99.90
11855;DHT22;5987;53.140;8.904;2024-03-02T17:12:00;12.50;99.90
11855;DHT22;5987;53.140;8.904;2024-03-02T17:15:05;12.40;99.90
11855;DHT22;5987;53.140;8.904;2024-03-02T17:18:09;12.30;99.90
11855;DHT22;5987;53.140;8.904;2024-03-02T17:21:14;12.40;99.90
11855;DHT22;5987;53.140;8.904;2024-03-02T17:24:18;12.20;99.90
11855;DHT22;5987;53.140;8.904;2024-03-02T17:27:22;12.20;99.90
11855;DHT22;5987;53.140;8.904;2024-03-02T17:30:26;12.00;99.90
11855;DHT22;5987;53.140;8.904;2024-03-02T17:33:30;12.10;99.90
11855;DHT22;5987;53.140;8.904;2024-03-02T17:36:35;12.00;99.90
11855;DHT22;5987;53.140;8.904;2024-03-02T17:39:39;11.80;99.90
11855;DHT22;5987;53.140;8.904;2024-03-02T17:42:43;11.90;99.90
11855;DHT22;5987;53.140;8.904;2024-03-02T17:45:47;12.00;99.90
11855;DHT22;5987;53.140;8.904;2024-03-02T17:48:51;11.80;99.90
11855;DHT22;5987;53.140;8.904;2024-03-02T17:51:56;11.80;99.90
11855;DHT22;5987;53.140;8.904;2024-03-02T17:55:00;11.70;99.90
11855;DHT22;5987;53.140;8.904;2024-03-02T17:58:04;11.60;99.90
11855;DHT22;5987;53.140;8.904;2024-03-02T18:01:08;11.50;99.90
11855;DHT22;5987;53.140;8.904;2024-03-02T18:04:13;11.40;99.90
11855;DHT22;5987;53.140;8.904;2024-03-02T18:07:19;11.40;99.90
11855;DHT22;5987;53.140;8.904;2024-03-02T18:10:23;11.40;99.90
11855;DHT22;5987;53.140;8.904;2024-03-02T18:13:26;11.40;99.90
11855;DHT22;5987;53.140;8.904;2024-03-02T18:16:31;11.40;99.90
11855;DHT22;5987;53.140;8.904;2024-03-02T18:19:35;11.40;99.90
11855;DHT22;5987;53.140;8.904;2024-03-02T18:22:40;11.50;99.90
11855;DHT22;5987;53.140;8.904;2024-03-02T18:25:44;11.40;99.90
11855;DHT22;5987;53.140;8.904;2024-03-02T18:28:49;11.50;99.90
11855;DHT22;5987;53.140;8.904;2024-03-02T18:31:53;11.50;99.90
11855;DHT22;5987;53.140;8.904;2024-03-02T18:34:58;11.50;99.90
11855;DHT22;5987;53.140;8.904;2024-03-02T18:38:03;11.60;99.90
11855;DHT22;5987;53.140;8.904;2024-03-02T18:41:07;11.50;99.90
11855;DHT22;5987;53.140;8.904;2024-03-02T18:44:11;11.40;99.90
11855;DHT22;5987;53.140;8.904;2024-03-02T18:47:15;11.40;99.90
11855;DHT22;5987;53.140;8.904;2024-03-02T18:50:25;11.40;99.90
11855;DHT22;5987;53.140;8.904;2024-03-02T18:53:30;11.20;99.90
11855;DHT22;5987;53.140;8.904;2024-03-02T18:56:36;10.90;99.90
11855;DHT22;5987;53.140;8.904;2024-03-02T18:59:40;11.00;99.90
11855;DHT22;5987;53.140;8.904;2024-03-02T19:02:43;10.90;99.90
11855;DHT22;5987;53.140;8.904;2024-03-02T19:05:47;10.80;99.90
11855;DHT22;5987;53.140;8.904;2024-03-02T19:08:53;10.90;99.90
11855;DHT22;5987;53.140;8.904;2024-03-02T19:11:56;10.90;99.90
11855;DHT22;5987;53.140;8.904;2024-03-02T19:15:00;10.80;99.90
11855;DHT22;5987;53.140;8.904;2024-03-02T19:18:04;10.80;99.90
11855;DHT22;5987;53.140;8.904;2024-03-02T19:21:09;10.90;99.90
11855;DHT22;5987;53.140;8.904;2024-03-02T19:24:14;10.70;99.90
11855;DHT22;5987;53.140;8.904;2024-03-02T19:27:18;10.60;99.90
11855;DHT22;5987;53.140;8.904;2024-03-02T19:30:22;10.60;99.90
11855;DHT22;5987;53.140;8.904;2024-03-02T19:33:27;10.60;99.90
11855;DHT22;5987;53.140;8.904;2024-03-02T19:36:31;10.50;99.90
11855;DHT22;5987;53.140;8.904;2024-03-02T19:39:37;10.40;99.90
11855;DHT22;5987;53.140;8.904;2024-03-02T19:42:44;10.40;99.90
11855;DHT22;5987;53.140;8.904;2024-03-02T19:45:48;10.30;99.90
11855;DHT22;5987;53.140;8.904;2024-03-02T19:48:52;10.30;99.90
11855;DHT22;5987;53.140;8.904;2024-03-02T19:51:56;10.30;99.90
11855;DHT22;5987;53.140;8.904;2024-03-02T19:55:01;10.40;99.90
11855;DHT22;5987;53.140;8.904;2024-03-02T19:58:07;10.30;99.90
11855;DHT22;5987;53.140;8.904;2024-03-02T20:01:11;10.40;99.90